createdAt,value
2018-05-15T13:48:35.946Z,277
2018-05-15T13:49:05.207Z,272
2018-05-15T13:50:15.056Z,287
2018-05-15T13:51:30.157Z,302
2018-05-15T13:53:14.033Z,317
2018-05-15T13:54:19.472Z,317
2018-05-15T13:55:24.944Z,312
2018-05-15T13:56:30.371Z,337
2018-05-15T13:57:35.767Z,342
2018-05-15T13:58:40.919Z,337
2018-05-15T13:59:46.131Z,358
2018-05-15T14:00:51.400Z,342
2018-05-15T14:01:56.569Z,342
2018-05-15T14:03:01.728Z,337
2018-05-15T14:04:06.330Z,417
2018-05-15T14:05:11.771Z,362
2018-05-15T14:06:16.940Z,377
2018-05-15T14:07:22.488Z,386
2018-05-15T14:08:27.346Z,402
2018-05-15T14:09:32.782Z,402
2018-05-15T14:10:37.651Z,417
2018-05-15T14:11:43.096Z,402
2018-05-15T14:12:48.267Z,386
2018-05-15T14:13:53.431Z,392
2018-05-15T14:14:58.589Z,377
2018-05-15T14:16:03.484Z,392
2018-05-15T14:17:08.676Z,408
2018-05-15T14:18:13.825Z,402
2018-05-15T14:19:19.457Z,408
2018-05-15T14:20:25.133Z,392
2018-05-15T14:21:30.587Z,402
2018-05-15T14:22:36.030Z,417
2018-05-15T14:23:41.467Z,410
2018-05-15T14:24:46.237Z,433
2018-05-15T14:25:52.126Z,402
2018-05-15T14:26:57.002Z,367
2018-05-15T14:28:01.994Z,367
2018-05-15T14:29:06.591Z,342
2018-05-15T14:30:11.513Z,358
2018-05-15T14:31:17.220Z,373
2018-05-15T14:32:22.493Z,342
2018-05-15T14:33:28.133Z,392
2018-05-15T14:34:33.295Z,392
2018-05-15T14:35:38.162Z,383
2018-05-15T14:36:43.599Z,398
2018-05-15T14:37:48.761Z,398
2018-05-15T14:38:53.639Z,398
2018-05-15T14:39:58.794Z,383
2018-05-15T14:41:03.947Z,377
2018-05-15T14:42:08.819Z,377
2018-05-15T14:43:13.780Z,352
2018-05-15T14:44:18.658Z,383
2018-05-15T14:45:23.827Z,383
2018-05-15T14:46:43.641Z,383
2018-05-15T14:47:49.078Z,352
2018-05-15T14:48:53.691Z,367
2018-05-15T14:49:58.833Z,337
2018-05-15T14:51:03.719Z,337
2018-05-15T14:52:08.031Z,327
2018-05-15T14:53:13.230Z,327
2018-05-15T14:54:18.854Z,327
2018-05-15T14:55:23.996Z,312
2018-05-15T14:56:29.149Z,312
2018-05-15T14:57:34.478Z,312
2018-05-15T14:58:39.372Z,312
2018-05-15T14:59:44.525Z,327
2018-05-15T15:00:49.976Z,342
2018-05-15T15:01:54.553Z,498
2018-05-15T15:02:59.419Z,507
2018-05-15T15:04:04.693Z,538
2018-05-15T15:05:09.611Z,643
2018-05-15T15:06:15.044Z,659
2018-05-15T15:07:19.645Z,692
2018-05-15T15:08:23.957Z,668
2018-05-15T15:09:28.918Z,676
2018-05-15T15:10:34.069Z,644
2018-05-15T15:11:39.232Z,644
2018-05-15T15:12:44.667Z,634
2018-05-15T15:13:50.095Z,547
2018-05-15T15:14:55.527Z,628
2018-05-15T15:16:00.995Z,635
2018-05-15T15:17:05.559Z,467
2018-05-15T15:18:10.730Z,474
2018-05-15T15:19:15.822Z,450
2018-05-15T15:20:21.260Z,498
2018-05-15T15:21:26.763Z,515
2018-05-15T15:22:31.664Z,529
2018-05-15T15:23:36.889Z,579
2018-05-15T15:24:42.539Z,562
2018-05-15T15:25:47.409Z,562
2018-05-15T15:26:52.567Z,546
2018-05-15T15:27:57.722Z,537
2018-05-15T15:29:02.315Z,546
2018-05-15T15:30:06.933Z,546
2018-05-15T15:31:11.907Z,529
2018-05-15T15:32:16.771Z,522
2018-05-15T15:33:21.951Z,522
2018-05-15T15:34:26.623Z,498
2018-05-15T15:35:31.769Z,491
2018-05-15T15:36:37.021Z,246
2018-05-15T15:37:41.885Z,238
2018-05-15T15:38:47.044Z,255
2018-05-15T15:39:51.921Z,262
2018-05-15T15:40:57.068Z,238
2018-05-15T15:42:01.943Z,231
2018-05-15T15:43:06.692Z,222
2018-05-15T15:44:11.570Z,246
2018-05-15T15:45:16.467Z,279
2018-05-15T15:46:21.348Z,246
2018-05-15T15:47:26.572Z,255
2018-05-15T15:48:31.817Z,270
2018-05-15T15:49:37.248Z,303
2018-05-15T15:50:42.126Z,310
2018-05-15T15:51:47.281Z,310
2018-05-15T15:52:52.735Z,326
2018-05-15T15:53:58.174Z,343
2018-05-15T15:55:03.056Z,350
2018-05-15T15:56:07.637Z,350
2018-05-15T15:57:12.506Z,326
2018-05-15T15:58:17.763Z,326
2018-05-15T15:59:22.924Z,317
2018-05-15T16:00:28.528Z,326
2018-05-15T16:01:33.687Z,310
2018-05-15T16:02:39.144Z,303
2018-05-15T16:03:44.325Z,303
2018-05-15T16:04:49.223Z,294
2018-05-15T16:05:54.667Z,310
2018-05-15T16:06:59.873Z,326
2018-05-15T16:08:05.310Z,326
2018-05-15T16:09:10.751Z,310
2018-05-15T16:10:16.084Z,325
2018-05-15T16:11:21.262Z,317
2018-05-15T16:12:26.371Z,317
2018-05-15T16:13:31.242Z,310
2018-05-15T16:14:36.217Z,349
2018-05-15T16:15:40.808Z,389
2018-05-15T16:16:45.712Z,381
2018-05-15T16:17:50.867Z,389
2018-05-15T16:18:56.023Z,381
2018-05-15T16:20:01.172Z,319
2018-05-15T16:21:06.217Z,286
2018-05-15T16:22:10.743Z,271
2018-05-15T16:23:15.662Z,262
2018-05-15T16:24:21.144Z,295
2018-05-15T16:25:26.549Z,312
2018-05-15T16:26:32.002Z,405
2018-05-15T16:27:36.950Z,341
2018-05-15T16:28:42.406Z,294
2018-05-15T16:29:47.958Z,277
2018-05-15T16:30:53.408Z,303
2018-05-15T16:31:58.840Z,294
2018-05-15T16:33:03.702Z,303
2018-05-15T16:34:08.850Z,341
2018-05-15T16:35:14.293Z,334
2018-05-15T16:36:19.170Z,405
2018-05-15T16:37:24.324Z,484
2018-05-15T16:38:29.481Z,451
2018-05-15T16:39:34.507Z,380
2018-05-15T16:40:39.283Z,237
2018-05-15T16:41:44.749Z,206
2018-05-15T16:42:49.456Z,182
2018-05-15T16:43:54.966Z,182
2018-05-15T16:45:00.419Z,174
2018-05-15T16:46:05.303Z,158
2018-05-15T16:47:10.483Z,182
2018-05-15T16:48:15.345Z,206
2018-05-15T16:49:20.248Z,292
2018-05-15T16:50:25.393Z,337
2018-05-15T16:51:30.747Z,354
2018-05-15T16:52:36.180Z,347
2018-05-15T16:53:41.701Z,361
2018-05-15T16:54:47.136Z,306
2018-05-15T16:55:52.581Z,229
2018-05-15T16:56:57.464Z,237
2018-05-15T16:58:02.094Z,257
2018-05-15T16:59:07.269Z,174
2018-05-15T17:00:13.027Z,165
2018-05-15T17:01:18.186Z,182
2018-05-15T17:02:23.354Z,251
2018-05-15T17:03:28.838Z,191
2018-05-15T17:04:34.287Z,158
2018-05-15T17:05:39.433Z,134
2018-05-15T17:06:44.595Z,134
2018-05-15T17:07:49.944Z,158
2018-05-15T17:08:55.145Z,237
2018-05-15T17:10:00.581Z,392
2018-05-15T17:11:05.160Z,196
2018-05-15T17:12:09.748Z,233
2018-05-15T17:13:15.208Z,251
2018-05-15T17:14:20.633Z,174
2018-05-15T17:15:40.915Z,134
2018-05-15T17:16:46.348Z,222
2018-05-15T17:17:51.502Z,244
2018-05-15T17:18:57.090Z,564
2018-05-15T17:20:02.522Z,759
2018-05-15T17:21:07.676Z,564
2018-05-15T17:22:12.985Z,785
2018-05-15T17:23:17.541Z,646
2018-05-15T17:24:22.970Z,215
2018-05-15T17:25:28.808Z,154
2018-05-15T17:26:34.540Z,141
2018-05-15T17:27:39.737Z,147
2018-05-15T17:28:44.896Z,154
2018-05-15T17:29:50.663Z,172
2018-05-15T17:30:56.200Z,172
2018-05-15T17:32:01.345Z,172
2018-05-15T17:33:05.693Z,182
2018-05-15T17:34:10.284Z,154
2018-05-15T17:35:15.446Z,172
2018-05-15T17:36:20.603Z,172
2018-05-15T17:37:26.096Z,189
2018-05-15T17:38:30.990Z,178
2018-05-15T17:39:36.299Z,172
2018-05-15T17:40:41.503Z,141
2018-05-15T17:41:46.675Z,141
2018-05-15T17:42:51.966Z,165
2018-05-15T17:43:57.110Z,182
2018-05-15T17:45:01.698Z,172
2018-05-15T17:46:06.590Z,182
2018-05-15T17:47:12.041Z,165
2018-05-15T17:48:16.912Z,147
2018-05-15T17:49:22.078Z,158
2018-05-15T17:50:27.449Z,141
2018-05-15T17:51:32.608Z,150
2018-05-15T17:52:37.756Z,134
2018-05-15T17:53:42.930Z,117
2018-05-15T17:54:48.363Z,127
2018-05-15T17:55:53.263Z,110
2018-05-15T17:56:58.739Z,110
2018-05-15T17:58:03.710Z,110
2018-05-15T17:59:08.866Z,119
2018-05-15T18:00:14.302Z,103
2018-05-15T18:01:19.522Z,119
2018-05-15T18:02:24.956Z,119
2018-05-15T18:03:30.309Z,103
2018-05-15T18:04:35.756Z,103
2018-05-15T18:05:40.907Z,86
2018-05-15T18:06:46.322Z,86
2018-05-15T18:07:51.477Z,95
2018-05-15T18:08:56.384Z,79
2018-05-15T18:10:01.636Z,62
2018-05-15T18:11:06.229Z,62
2018-05-15T18:12:11.717Z,62
2018-05-15T18:13:16.295Z,62
2018-05-15T18:14:21.442Z,62
2018-05-15T18:15:26.577Z,62
2018-05-15T18:16:31.456Z,72
2018-05-15T18:17:36.883Z,72
2018-05-15T18:18:42.180Z,72
2018-05-15T18:19:47.672Z,55
2018-05-15T18:20:52.835Z,55
2018-05-15T18:21:57.988Z,55
2018-05-15T18:23:03.135Z,37
2018-05-15T18:24:07.435Z,48
2018-05-15T18:25:12.970Z,48
2018-05-15T18:26:18.120Z,31
2018-05-15T18:27:23.058Z,31
2018-05-15T18:28:28.386Z,31
2018-05-15T18:29:33.547Z,31
2018-05-15T18:30:39.426Z,31
2018-05-15T18:31:44.570Z,31
2018-05-15T18:32:50.073Z,31
2018-05-15T18:33:55.322Z,31
2018-05-15T18:35:00.799Z,31
2018-05-15T18:36:06.251Z,31
2018-05-15T18:37:11.509Z,31
2018-05-15T18:38:17.276Z,31
2018-05-15T18:39:22.175Z,31
2018-05-15T18:40:27.702Z,13
2018-05-15T18:41:33.134Z,13
2018-05-15T18:42:38.296Z,13
2018-05-15T18:43:43.447Z,13
2018-05-15T18:44:48.877Z,13
2018-05-15T18:45:53.797Z,13
2018-05-15T18:46:58.980Z,13
2018-05-15T18:48:04.437Z,24
2018-05-15T18:49:09.680Z,24
2018-05-15T18:50:15.117Z,24
2018-05-15T18:51:19.967Z,24
2018-05-15T18:52:24.995Z,24
2018-05-15T18:53:29.584Z,6
2018-05-15T18:54:34.737Z,6
2018-05-15T18:55:39.618Z,6
2018-05-15T18:56:45.045Z,6
2018-05-15T18:57:50.376Z,6
2018-05-15T18:58:55.827Z,6
2018-05-15T19:00:01.008Z,6
2018-05-15T19:01:06.154Z,6
2018-05-15T19:02:11.315Z,6
2018-05-15T19:03:16.467Z,6
2018-05-15T19:04:21.336Z,6
2018-05-15T19:05:26.499Z,6
2018-05-15T19:06:31.568Z,0
2018-05-15T19:07:37.000Z,0
2018-05-15T19:08:42.162Z,0
2018-05-15T19:09:47.604Z,0
2018-05-15T19:10:52.754Z,0
2018-05-15T19:11:58.188Z,0
2018-05-15T19:13:03.447Z,0
2018-05-15T19:14:08.625Z,0
2018-05-15T19:15:14.056Z,0
2018-05-15T19:16:19.315Z,0
2018-05-15T19:17:24.193Z,0
2018-05-15T19:18:29.611Z,0
2018-05-15T19:19:34.661Z,0
2018-05-15T19:20:40.324Z,0
2018-05-15T19:21:45.224Z,0
2018-05-15T19:22:50.380Z,0
2018-05-15T19:23:55.520Z,0
2018-05-15T19:25:00.958Z,0
2018-05-15T19:26:05.292Z,0
2018-05-15T19:27:10.391Z,0
2018-05-15T19:28:15.111Z,0
2018-05-15T19:29:20.564Z,0
2018-05-15T19:30:26.614Z,0
2018-05-15T19:31:32.050Z,0
2018-05-15T19:32:37.485Z,0
2018-05-15T19:33:42.792Z,0
2018-05-15T19:34:47.928Z,0
2018-05-15T19:35:52.599Z,0
2018-05-15T19:36:57.746Z,0
2018-05-15T19:38:02.882Z,0
2018-05-15T19:39:08.026Z,0
2018-05-15T19:40:13.456Z,0
2018-05-15T19:41:18.600Z,0
2018-05-15T19:42:24.031Z,0
2018-05-15T19:43:29.963Z,0
2018-05-15T19:44:35.126Z,0
2018-05-15T19:45:40.290Z,0
2018-05-15T19:46:45.221Z,0
2018-05-15T19:47:50.395Z,0
2018-05-15T19:48:55.275Z,0
2018-05-15T19:50:00.155Z,0
2018-05-15T19:51:04.764Z,0
2018-05-15T19:52:09.916Z,0
2018-05-15T19:53:15.354Z,0
2018-05-15T19:54:20.499Z,0
2018-05-15T19:55:25.542Z,0
2018-05-15T19:56:30.727Z,0
2018-05-15T19:57:35.926Z,0
2018-05-15T19:58:41.075Z,0
2018-05-15T19:59:46.231Z,0
2018-05-15T20:00:51.358Z,0
2018-05-15T20:01:57.203Z,0
2018-05-15T20:03:02.414Z,0
2018-05-15T20:04:06.725Z,0
2018-05-15T20:05:12.161Z,0
2018-05-15T20:06:17.316Z,0
2018-05-15T20:07:22.474Z,0
2018-05-15T20:08:27.906Z,0
2018-05-15T20:09:32.818Z,0
2018-05-15T20:10:38.228Z,0
2018-05-15T20:11:43.463Z,0
2018-05-15T20:12:49.075Z,0
2018-05-15T20:13:54.242Z,0
2018-05-15T20:14:59.674Z,0
2018-05-15T20:16:04.696Z,0
2018-05-15T20:17:09.919Z,0
2018-05-15T20:18:15.366Z,0
2018-05-15T20:19:20.534Z,0
2018-05-15T20:20:25.391Z,0
2018-05-15T20:21:30.558Z,0
2018-05-15T20:22:35.715Z,0
2018-05-15T20:23:41.353Z,0
2018-05-15T20:24:46.882Z,0
2018-05-15T20:25:52.322Z,0
2018-05-15T20:26:57.756Z,0
2018-05-15T20:28:02.343Z,0
2018-05-15T20:29:06.947Z,0
2018-05-15T20:30:11.926Z,0
2018-05-15T20:31:16.801Z,0
2018-05-15T20:32:22.231Z,0
2018-05-15T20:33:27.731Z,0
2018-05-15T20:34:32.909Z,0
2018-05-15T20:35:38.050Z,0
2018-05-15T20:36:43.354Z,0
2018-05-15T20:37:48.805Z,0
2018-05-15T20:38:54.325Z,0
2018-05-15T20:39:59.225Z,0
2018-05-15T20:41:04.396Z,0
2018-05-15T20:42:09.452Z,0
2018-05-15T20:43:14.464Z,0
2018-05-15T20:44:19.623Z,0
2018-05-15T20:45:24.979Z,0
2018-05-15T20:46:29.861Z,0
2018-05-15T20:47:35.300Z,0
2018-05-15T20:48:40.789Z,0
2018-05-15T20:49:46.216Z,0
2018-05-15T20:50:51.654Z,0
2018-05-15T20:51:57.298Z,0
2018-05-15T20:53:02.463Z,0
2018-05-15T20:54:07.333Z,0
2018-05-15T20:55:12.773Z,0
2018-05-15T20:56:17.931Z,0
2018-05-15T20:57:23.088Z,0
2018-05-15T20:58:32.074Z,0
2018-05-15T20:59:37.563Z,0
2018-05-15T21:00:43.314Z,0
2018-05-15T21:01:48.965Z,0
2018-05-15T21:02:54.393Z,0
2018-05-15T21:03:59.837Z,0
2018-05-15T21:05:04.732Z,0
2018-05-15T21:06:09.890Z,0
2018-05-15T21:07:15.032Z,0
2018-05-15T21:08:20.465Z,0
2018-05-15T21:09:25.989Z,0
2018-05-15T21:10:30.886Z,0
2018-05-15T21:11:36.033Z,0
2018-05-15T21:12:41.058Z,0
2018-05-15T21:13:46.217Z,0
2018-05-15T21:14:51.591Z,0
2018-05-15T21:15:56.593Z,0
2018-05-15T21:17:01.468Z,0
2018-05-15T21:18:06.638Z,0
2018-05-15T21:19:12.217Z,0
2018-05-15T21:20:17.091Z,0
2018-05-15T21:21:22.535Z,0
2018-05-15T21:22:27.793Z,0
2018-05-15T21:23:32.948Z,0
2018-05-15T21:24:38.382Z,0
2018-05-15T21:25:43.815Z,0
2018-05-15T21:26:48.962Z,0
2018-05-15T21:27:54.215Z,0
2018-05-15T21:28:59.359Z,0
2018-05-15T21:30:04.801Z,0
2018-05-15T21:31:10.395Z,0
2018-05-15T21:32:16.033Z,0
2018-05-15T21:33:21.190Z,0
2018-05-15T21:34:26.432Z,0
2018-05-15T21:35:31.903Z,0
2018-05-15T21:36:37.455Z,0
2018-05-15T21:37:42.613Z,0
2018-05-15T21:38:48.054Z,0
2018-05-15T21:39:53.013Z,0
2018-05-15T21:40:58.256Z,0
2018-05-15T21:42:03.702Z,0
2018-05-15T21:43:08.866Z,0
2018-05-15T21:44:13.454Z,0
2018-05-15T21:45:18.889Z,0
2018-05-15T21:46:24.430Z,0
2018-05-15T21:47:29.298Z,0
2018-05-15T21:48:34.931Z,0
2018-05-15T21:49:40.124Z,0
2018-05-15T21:50:45.278Z,0
2018-05-15T21:51:50.432Z,0
2018-05-15T21:52:55.863Z,0
2018-05-15T21:54:00.450Z,0
2018-05-15T21:55:05.997Z,0
2018-05-15T21:56:10.873Z,0
2018-05-15T21:57:16.305Z,0
2018-05-15T21:58:21.739Z,0
2018-05-15T21:59:26.924Z,0
2018-05-15T22:00:32.772Z,0
2018-05-15T22:01:38.215Z,0
2018-05-15T22:02:43.088Z,0
2018-05-15T22:03:48.105Z,0
2018-05-15T22:04:53.428Z,0
2018-05-15T22:05:58.589Z,0
2018-05-15T22:07:03.739Z,0
2018-05-15T22:08:08.596Z,0
2018-05-15T22:09:13.809Z,0
2018-05-15T22:10:18.961Z,0
2018-05-15T22:11:24.391Z,0
2018-05-15T22:12:29.311Z,0
2018-05-15T22:13:34.182Z,0
2018-05-15T22:14:39.611Z,0
2018-05-15T22:15:44.344Z,0
2018-05-15T22:16:48.925Z,0
2018-05-15T22:17:54.358Z,0
2018-05-15T22:18:59.500Z,0
2018-05-15T22:20:04.078Z,0
2018-05-15T22:21:09.236Z,0
2018-05-15T22:22:14.480Z,0
2018-05-15T22:23:19.643Z,0
2018-05-15T22:24:24.519Z,0
2018-05-15T22:25:29.155Z,0
2018-05-15T22:26:34.604Z,0
2018-05-15T22:27:39.760Z,0
2018-05-15T22:28:44.916Z,0
2018-05-15T22:29:50.369Z,0
2018-05-15T22:30:55.395Z,0
2018-05-15T22:32:00.863Z,0
2018-05-15T22:33:05.734Z,0
2018-05-15T22:34:11.166Z,0
2018-05-15T22:35:16.036Z,0
2018-05-15T22:36:21.471Z,0
2018-05-15T22:37:41.278Z,0
2018-05-15T22:38:46.728Z,0
2018-05-15T22:39:52.412Z,0
2018-05-15T22:40:57.847Z,0
2018-05-15T22:42:02.713Z,0
2018-05-15T22:43:07.288Z,0
2018-05-15T22:44:12.722Z,0
2018-05-15T22:45:17.878Z,0
2018-05-15T22:46:23.175Z,0
2018-05-15T22:47:28.624Z,0
2018-05-15T22:48:34.066Z,0
2018-05-15T22:49:39.228Z,0
2018-05-15T22:50:44.658Z,0
2018-05-15T22:51:50.190Z,0
2018-05-15T22:52:55.353Z,0
2018-05-15T22:54:00.248Z,0
2018-05-15T22:55:05.781Z,0
2018-05-15T22:56:10.660Z,0
2018-05-15T22:57:15.521Z,0
2018-05-15T22:58:20.400Z,0
2018-05-15T22:59:25.268Z,0
2018-05-15T23:00:30.669Z,0
2018-05-15T23:01:35.525Z,0
2018-05-15T23:02:40.691Z,0
2018-05-15T23:03:46.004Z,0
2018-05-15T23:04:51.434Z,0
2018-05-15T23:05:56.866Z,0
2018-05-15T23:07:02.462Z,0
2018-05-15T23:08:06.774Z,0
2018-05-15T23:09:11.642Z,0
2018-05-15T23:10:16.523Z,0
2018-05-15T23:11:21.971Z,0
2018-05-15T23:12:27.274Z,0
2018-05-15T23:13:32.438Z,0
2018-05-15T23:14:37.304Z,0
2018-05-15T23:15:42.580Z,0
2018-05-15T23:16:47.492Z,0
2018-05-15T23:17:52.649Z,0
2018-05-15T23:18:57.676Z,0
2018-05-15T23:20:03.172Z,0
2018-05-15T23:21:08.602Z,0
2018-05-15T23:22:14.135Z,0
2018-05-15T23:23:19.290Z,0
2018-05-15T23:24:24.466Z,0
2018-05-15T23:25:29.923Z,0
2018-05-15T23:26:35.105Z,0
2018-05-15T23:27:40.220Z,0
2018-05-15T23:28:45.372Z,0
2018-05-15T23:29:50.833Z,0
2018-05-15T23:30:55.980Z,0
2018-05-15T23:32:00.850Z,0
2018-05-15T23:33:05.753Z,0
2018-05-15T23:34:10.631Z,0
2018-05-15T23:35:15.782Z,0
2018-05-15T23:36:21.220Z,0
2018-05-15T23:37:41.126Z,0
2018-05-15T23:38:46.074Z,0
2018-05-15T23:39:51.694Z,0
2018-05-15T23:40:55.987Z,0
2018-05-15T23:42:01.135Z,0
2018-05-15T23:43:05.750Z,0
2018-05-15T23:44:10.920Z,0
2018-05-15T23:45:16.069Z,0
2018-05-15T23:46:21.230Z,0
2018-05-15T23:47:26.663Z,0
2018-05-15T23:48:32.011Z,0
2018-05-15T23:49:36.951Z,0
2018-05-15T23:50:42.108Z,0
2018-05-15T23:51:47.361Z,0
2018-05-15T23:52:51.952Z,0
2018-05-15T23:53:57.298Z,0
2018-05-15T23:55:02.096Z,0
2018-05-15T23:56:06.410Z,0
2018-05-15T23:57:11.844Z,0
2018-05-15T23:58:16.719Z,0
2018-05-15T23:59:22.160Z,0
